sensor_id;sensor_type;location;lat;lon;timestamp;P1;durP1;ratioP1;P2;durP2;ratioP2
63342;SDS011;49465;57.664;39.686;2023-03-23T00:00:35;2.15;;;1.90;;
63342;SDS011;49465;57.664;39.686;2023-03-23T00:03:06;2.13;;;1.85;;
63342;SDS011;49465;57.664;39.686;2023-03-23T00:05:33;2.00;;;1.80;;
63342;SDS011;49465;57.664;39.686;2023-03-23T00:08:04;2.08;;;1.88;;
63342;SDS011;49465;57.664;39.686;2023-03-23T00:10:40;2.13;;;1.92;;
63342;SDS011;49465;57.664;39.686;2023-03-23T00:13:09;1.92;;;1.73;;
63342;SDS011;49465;57.664;39.686;2023-03-23T00:15:39;3.38;;;1.98;;
63342;SDS011;49465;57.664;39.686;2023-03-23T00:18:07;2.00;;;1.80;;
63342;SDS011;49465;57.664;39.686;2023-03-23T00:20:55;2.20;;;2.00;;
63342;SDS011;49465;57.664;39.686;2023-03-23T00:23:25;1.95;;;1.75;;
63342;SDS011;49465;57.664;39.686;2023-03-23T00:25:54;2.85;;;1.70;;
63342;SDS011;49465;57.664;39.686;2023-03-23T00:28:24;2.05;;;1.83;;
63342;SDS011;49465;57.664;39.686;2023-03-23T00:31:01;2.13;;;1.92;;
63342;SDS011;49465;57.664;39.686;2023-03-23T00:33:34;2.63;;;2.10;;
63342;SDS011;49465;57.664;39.686;2023-03-23T00:36:11;2.20;;;2.00;;
63342;SDS011;49465;57.664;39.686;2023-03-23T00:38:38;2.20;;;2.00;;
63342;SDS011;49465;57.664;39.686;2023-03-23T00:41:09;2.40;;;2.20;;
63342;SDS011;49465;57.664;39.686;2023-03-23T00:43:38;2.40;;;1.90;;
63342;SDS011;49465;57.664;39.686;2023-03-23T00:46:05;2.13;;;1.90;;
63342;SDS011;49465;57.664;39.686;2023-03-23T00:48:37;2.28;;;1.75;;
63342;SDS011;49465;57.664;39.686;2023-03-23T00:51:12;1.88;;;1.70;;
63342;SDS011;49465;57.664;39.686;2023-03-23T00:53:39;2.10;;;1.90;;
63342;SDS011;49465;57.664;39.686;2023-03-23T00:56:08;1.70;;;1.58;;
63342;SDS011;49465;57.664;39.686;2023-03-23T00:58:38;2.67;;;1.75;;
63342;SDS011;49465;57.664;39.686;2023-03-23T01:01:04;1.92;;;1.73;;
63342;SDS011;49465;57.664;39.686;2023-03-23T01:03:37;2.28;;;1.90;;
63342;SDS011;49465;57.664;39.686;2023-03-23T01:06:12;2.00;;;1.80;;
63342;SDS011;49465;57.664;39.686;2023-03-23T01:08:44;2.85;;;2.20;;
63342;SDS011;49465;57.664;39.686;2023-03-23T01:11:16;2.47;;;2.08;;
63342;SDS011;49465;57.664;39.686;2023-03-23T01:13:45;2.67;;;2.17;;
63342;SDS011;49465;57.664;39.686;2023-03-23T01:16:14;2.33;;;2.03;;
63342;SDS011;49465;57.664;39.686;2023-03-23T01:18:46;2.22;;;1.92;;
63342;SDS011;49465;57.664;39.686;2023-03-23T01:21:19;3.08;;;2.00;;
63342;SDS011;49465;57.664;39.686;2023-03-23T01:23:55;2.50;;;1.88;;
63342;SDS011;49465;57.664;39.686;2023-03-23T01:26:25;2.42;;;1.83;;
63342;SDS011;49465;57.664;39.686;2023-03-23T01:28:55;2.35;;;2.00;;
63342;SDS011;49465;57.664;39.686;2023-03-23T01:31:27;2.10;;;1.80;;
63342;SDS011;49465;57.664;39.686;2023-03-23T01:33:59;2.05;;;1.80;;
63342;SDS011;49465;57.664;39.686;2023-03-23T01:36:26;2.95;;;2.25;;
63342;SDS011;49465;57.664;39.686;2023-03-23T01:39:00;2.15;;;1.73;;
63342;SDS011;49465;57.664;39.686;2023-03-23T01:41:33;2.53;;;1.73;;
63342;SDS011;49465;57.664;39.686;2023-03-23T01:46:57;2.42;;;2.00;;
63342;SDS011;49465;57.664;39.686;2023-03-23T01:49:28;2.30;;;1.92;;
63342;SDS011;49465;57.664;39.686;2023-03-23T01:52:06;2.50;;;2.10;;
63342;SDS011;49465;57.664;39.686;2023-03-23T01:54:42;2.40;;;2.03;;
63342;SDS011;49465;57.664;39.686;2023-03-23T01:57:11;2.97;;;2.35;;
63342;SDS011;49465;57.664;39.686;2023-03-23T01:59:47;3.92;;;2.10;;
63342;SDS011;49465;57.664;39.686;2023-03-23T02:02:20;3.13;;;2.42;;
63342;SDS011;49465;57.664;39.686;2023-03-23T02:04:51;2.60;;;2.30;;
63342;SDS011;49465;57.664;39.686;2023-03-23T02:07:27;2.30;;;2.10;;
63342;SDS011;49465;57.664;39.686;2023-03-23T02:09:56;2.35;;;2.10;;
63342;SDS011;49465;57.664;39.686;2023-03-23T02:12:27;2.60;;;2.13;;
63342;SDS011;49465;57.664;39.686;2023-03-23T02:14:56;2.20;;;2.00;;
63342;SDS011;49465;57.664;39.686;2023-03-23T02:20:05;2.75;;;2.33;;
63342;SDS011;49465;57.664;39.686;2023-03-23T02:34:16;2.20;;;2.00;;
63342;SDS011;49465;57.664;39.686;2023-03-23T02:37:00;2.65;;;2.22;;
63342;SDS011;49465;57.664;39.686;2023-03-23T02:42:26;3.20;;;2.45;;
63342;SDS011;49465;57.664;39.686;2023-03-23T02:45:04;2.65;;;2.15;;
63342;SDS011;49465;57.664;39.686;2023-03-23T02:47:39;4.20;;;2.90;;
63342;SDS011;49465;57.664;39.686;2023-03-23T02:50:16;2.55;;;2.30;;
63342;SDS011;49465;57.664;39.686;2023-03-23T02:52:55;2.53;;;2.25;;
63342;SDS011;49465;57.664;39.686;2023-03-23T02:55:36;2.42;;;2.20;;
63342;SDS011;49465;57.664;39.686;2023-03-23T02:58:14;3.25;;;2.30;;
63342;SDS011;49465;57.664;39.686;2023-03-23T03:00:48;2.45;;;2.20;;
63342;SDS011;49465;57.664;39.686;2023-03-23T03:03:28;2.88;;;2.13;;
63342;SDS011;49465;57.664;39.686;2023-03-23T03:06:17;3.03;;;1.92;;
63342;SDS011;49465;57.664;39.686;2023-03-23T03:08:55;3.05;;;2.38;;
63342;SDS011;49465;57.664;39.686;2023-03-23T03:11:40;2.47;;;2.08;;
63342;SDS011;49465;57.664;39.686;2023-03-23T03:14:16;2.40;;;2.10;;
63342;SDS011;49465;57.664;39.686;2023-03-23T03:17:13;2.47;;;2.10;;
63342;SDS011;49465;57.664;39.686;2023-03-23T03:20:08;3.25;;;2.17;;
63342;SDS011;49465;57.664;39.686;2023-03-23T03:22:41;7.22;;;5.05;;
63342;SDS011;49465;57.664;39.686;2023-03-23T03:25:15;7.32;;;5.13;;
63342;SDS011;49465;57.664;39.686;2023-03-23T03:27:57;9.15;;;6.10;;
63342;SDS011;49465;57.664;39.686;2023-03-23T03:30:33;6.72;;;4.60;;
63342;SDS011;49465;57.664;39.686;2023-03-23T03:33:12;5.82;;;4.10;;
63342;SDS011;49465;57.664;39.686;2023-03-23T03:35:53;3.70;;;3.00;;
63342;SDS011;49465;57.664;39.686;2023-03-23T03:38:21;4.22;;;2.72;;
63342;SDS011;49465;57.664;39.686;2023-03-23T03:40:49;3.58;;;2.95;;
63342;SDS011;49465;57.664;39.686;2023-03-23T03:43:18;3.08;;;2.60;;
63342;SDS011;49465;57.664;39.686;2023-03-23T03:45:44;3.38;;;2.47;;
63342;SDS011;49465;57.664;39.686;2023-03-23T03:48:20;2.30;;;2.10;;
63342;SDS011;49465;57.664;39.686;2023-03-23T03:50:46;3.05;;;2.40;;
63342;SDS011;49465;57.664;39.686;2023-03-23T03:53:15;3.03;;;2.40;;
63342;SDS011;49465;57.664;39.686;2023-03-23T03:55:41;2.60;;;2.30;;
63342;SDS011;49465;57.664;39.686;2023-03-23T03:58:20;2.88;;;2.58;;
63342;SDS011;49465;57.664;39.686;2023-03-23T04:00:48;2.63;;;2.13;;
63342;SDS011;49465;57.664;39.686;2023-03-23T04:03:15;2.50;;;2.22;;
63342;SDS011;49465;57.664;39.686;2023-03-23T04:05:44;2.72;;;2.13;;
63342;SDS011;49465;57.664;39.686;2023-03-23T04:08:16;3.45;;;2.30;;
63342;SDS011;49465;57.664;39.686;2023-03-23T04:10:43;2.78;;;2.28;;
63342;SDS011;49465;57.664;39.686;2023-03-23T04:13:09;2.72;;;2.50;;
63342;SDS011;49465;57.664;39.686;2023-03-23T04:15:35;2.33;;;2.10;;
63342;SDS011;49465;57.664;39.686;2023-03-23T04:18:04;3.35;;;2.30;;
63342;SDS011;49465;57.664;39.686;2023-03-23T04:20:33;2.72;;;2.20;;
63342;SDS011;49465;57.664;39.686;2023-03-23T04:23:03;2.83;;;2.25;;
63342;SDS011;49465;57.664;39.686;2023-03-23T04:25:30;2.55;;;2.35;;
63342;SDS011;49465;57.664;39.686;2023-03-23T04:27:58;2.60;;;2.20;;
63342;SDS011;49465;57.664;39.686;2023-03-23T04:30:28;2.85;;;2.30;;
63342;SDS011;49465;57.664;39.686;2023-03-23T04:33:00;4.25;;;2.40;;
63342;SDS011;49465;57.664;39.686;2023-03-23T04:35:32;3.25;;;2.30;;
63342;SDS011;49465;57.664;39.686;2023-03-23T04:38:01;2.78;;;2.40;;
63342;SDS011;49465;57.664;39.686;2023-03-23T04:40:30;2.30;;;2.10;;
63342;SDS011;49465;57.664;39.686;2023-03-23T04:43:03;2.80;;;2.30;;
63342;SDS011;49465;57.664;39.686;2023-03-23T04:45:33;2.50;;;2.20;;
63342;SDS011;49465;57.664;39.686;2023-03-23T04:48:03;2.83;;;2.40;;
63342;SDS011;49465;57.664;39.686;2023-03-23T04:50:33;2.45;;;2.20;;
63342;SDS011;49465;57.664;39.686;2023-03-23T04:53:05;2.83;;;2.20;;
63342;SDS011;49465;57.664;39.686;2023-03-23T04:55:32;3.42;;;2.50;;
63342;SDS011;49465;57.664;39.686;2023-03-23T04:58:06;4.00;;;2.45;;
63342;SDS011;49465;57.664;39.686;2023-03-23T05:00:40;4.20;;;2.90;;
63342;SDS011;49465;57.664;39.686;2023-03-23T05:03:12;4.15;;;2.60;;
63342;SDS011;49465;57.664;39.686;2023-03-23T05:05:47;2.67;;;2.35;;
63342;SDS011;49465;57.664;39.686;2023-03-23T05:08:23;3.03;;;2.35;;
63342;SDS011;49465;57.664;39.686;2023-03-23T05:10:57;3.22;;;2.50;;
63342;SDS011;49465;57.664;39.686;2023-03-23T05:16:02;2.88;;;2.30;;
63342;SDS011;49465;57.664;39.686;2023-03-23T05:18:32;3.83;;;2.70;;
63342;SDS011;49465;57.664;39.686;2023-03-23T05:20:59;3.88;;;2.35;;
63342;SDS011;49465;57.664;39.686;2023-03-23T05:23:32;2.45;;;2.20;;
63342;SDS011;49465;57.664;39.686;2023-03-23T05:26:03;3.55;;;2.72;;
63342;SDS011;49465;57.664;39.686;2023-03-23T05:28:35;2.72;;;2.42;;
63342;SDS011;49465;57.664;39.686;2023-03-23T05:31:02;2.65;;;2.22;;
63342;SDS011;49465;57.664;39.686;2023-03-23T05:33:32;2.90;;;2.25;;
63342;SDS011;49465;57.664;39.686;2023-03-23T05:36:01;3.40;;;2.40;;
63342;SDS011;49465;57.664;39.686;2023-03-23T05:38:32;3.40;;;2.38;;
63342;SDS011;49465;57.664;39.686;2023-03-23T05:41:01;3.42;;;2.50;;
63342;SDS011;49465;57.664;39.686;2023-03-23T05:43:27;3.05;;;2.75;;
63342;SDS011;49465;57.664;39.686;2023-03-23T05:45:59;3.35;;;2.60;;
63342;SDS011;49465;57.664;39.686;2023-03-23T05:48:32;3.10;;;2.42;;
63342;SDS011;49465;57.664;39.686;2023-03-23T05:51:07;2.92;;;2.60;;
63342;SDS011;49465;57.664;39.686;2023-03-23T05:53:37;3.10;;;2.80;;
63342;SDS011;49465;57.664;39.686;2023-03-23T05:56:06;2.80;;;2.40;;
63342;SDS011;49465;57.664;39.686;2023-03-23T05:58:36;3.40;;;2.88;;
63342;SDS011;49465;57.664;39.686;2023-03-23T06:01:05;3.75;;;2.80;;
63342;SDS011;49465;57.664;39.686;2023-03-23T06:03:35;3.65;;;2.90;;
63342;SDS011;49465;57.664;39.686;2023-03-23T06:06:04;3.03;;;2.67;;
63342;SDS011;49465;57.664;39.686;2023-03-23T06:08:31;3.35;;;2.97;;
63342;SDS011;49465;57.664;39.686;2023-03-23T06:11:07;4.00;;;2.97;;
63342;SDS011;49465;57.664;39.686;2023-03-23T06:13:39;4.55;;;2.95;;
63342;SDS011;49465;57.664;39.686;2023-03-23T06:16:06;4.72;;;3.00;;
63342;SDS011;49465;57.664;39.686;2023-03-23T06:18:38;3.50;;;2.65;;
63342;SDS011;49465;57.664;39.686;2023-03-23T06:21:12;2.90;;;2.50;;
63342;SDS011;49465;57.664;39.686;2023-03-23T06:23:41;3.30;;;2.97;;
63342;SDS011;49465;57.664;39.686;2023-03-23T06:26:10;4.13;;;2.90;;
63342;SDS011;49465;57.664;39.686;2023-03-23T06:28:44;3.00;;;2.70;;
63342;SDS011;49465;57.664;39.686;2023-03-23T06:31:16;3.65;;;2.92;;
63342;SDS011;49465;57.664;39.686;2023-03-23T06:33:46;3.58;;;3.03;;
63342;SDS011;49465;57.664;39.686;2023-03-23T06:36:15;3.83;;;2.97;;
63342;SDS011;49465;57.664;39.686;2023-03-23T06:38:47;4.20;;;3.30;;
63342;SDS011;49465;57.664;39.686;2023-03-23T06:41:19;4.45;;;3.00;;
63342;SDS011;49465;57.664;39.686;2023-03-23T06:43:51;4.05;;;3.35;;
63342;SDS011;49465;57.664;39.686;2023-03-23T06:46:29;9.27;;;3.30;;
63342;SDS011;49465;57.664;39.686;2023-03-23T06:49:03;3.40;;;3.10;;
63342;SDS011;49465;57.664;39.686;2023-03-23T06:51:30;4.28;;;3.08;;
63342;SDS011;49465;57.664;39.686;2023-03-23T06:53:56;3.92;;;3.35;;
63342;SDS011;49465;57.664;39.686;2023-03-23T06:56:31;3.50;;;2.80;;
63342;SDS011;49465;57.664;39.686;2023-03-23T06:59:03;4.32;;;3.10;;
63342;SDS011;49465;57.664;39.686;2023-03-23T07:01:32;3.33;;;2.90;;
63342;SDS011;49465;57.664;39.686;2023-03-23T07:04:01;4.05;;;3.20;;
63342;SDS011;49465;57.664;39.686;2023-03-23T07:06:31;3.78;;;3.35;;
63342;SDS011;49465;57.664;39.686;2023-03-23T07:09:00;4.65;;;3.85;;
63342;SDS011;49465;57.664;39.686;2023-03-23T07:11:30;4.07;;;3.63;;
63342;SDS011;49465;57.664;39.686;2023-03-23T07:14:02;3.88;;;3.20;;
63342;SDS011;49465;57.664;39.686;2023-03-23T07:16:34;3.97;;;3.08;;
63342;SDS011;49465;57.664;39.686;2023-03-23T07:19:12;4.05;;;3.17;;
63342;SDS011;49465;57.664;39.686;2023-03-23T07:21:40;3.30;;;3.00;;
63342;SDS011;49465;57.664;39.686;2023-03-23T07:24:14;3.20;;;2.85;;
63342;SDS011;49465;57.664;39.686;2023-03-23T07:26:47;3.22;;;2.92;;
63342;SDS011;49465;57.664;39.686;2023-03-23T07:29:21;3.67;;;3.03;;
63342;SDS011;49465;57.664;39.686;2023-03-23T07:31:50;4.65;;;3.08;;
63342;SDS011;49465;57.664;39.686;2023-03-23T07:34:17;3.85;;;2.95;;
63342;SDS011;49465;57.664;39.686;2023-03-23T07:36:55;3.05;;;2.75;;
63342;SDS011;49465;57.664;39.686;2023-03-23T07:39:21;3.97;;;3.15;;
63342;SDS011;49465;57.664;39.686;2023-03-23T07:41:54;4.30;;;3.20;;
63342;SDS011;49465;57.664;39.686;2023-03-23T07:44:23;3.92;;;3.10;;
63342;SDS011;49465;57.664;39.686;2023-03-23T07:46:52;4.30;;;3.00;;
63342;SDS011;49465;57.664;39.686;2023-03-23T07:49:24;3.40;;;2.97;;
63342;SDS011;49465;57.664;39.686;2023-03-23T07:51:55;3.67;;;3.17;;
63342;SDS011;49465;57.664;39.686;2023-03-23T07:54:30;3.90;;;2.97;;
63342;SDS011;49465;57.664;39.686;2023-03-23T07:56:59;4.50;;;3.20;;
63342;SDS011;49465;57.664;39.686;2023-03-23T07:59:26;4.00;;;3.15;;
63342;SDS011;49465;57.664;39.686;2023-03-23T08:01:57;3.65;;;2.92;;
63342;SDS011;49465;57.664;39.686;2023-03-23T08:04:29;3.60;;;2.92;;
63342;SDS011;49465;57.664;39.686;2023-03-23T08:07:01;3.47;;;2.67;;
63342;SDS011;49465;57.664;39.686;2023-03-23T08:09:42;3.15;;;2.80;;
63342;SDS011;49465;57.664;39.686;2023-03-23T08:12:11;4.65;;;3.05;;
63342;SDS011;49465;57.664;39.686;2023-03-23T08:14:43;3.40;;;2.95;;
63342;SDS011;49465;57.664;39.686;2023-03-23T08:17:12;4.03;;;3.15;;
63342;SDS011;49465;57.664;39.686;2023-03-23T08:19:39;5.70;;;3.22;;
63342;SDS011;49465;57.664;39.686;2023-03-23T08:22:11;3.35;;;3.00;;
63342;SDS011;49465;57.664;39.686;2023-03-23T08:24:40;3.42;;;2.85;;
63342;SDS011;49465;57.664;39.686;2023-03-23T08:27:09;4.38;;;3.20;;
63342;SDS011;49465;57.664;39.686;2023-03-23T08:29:38;3.92;;;3.20;;
63342;SDS011;49465;57.664;39.686;2023-03-23T08:32:05;4.35;;;3.03;;
63342;SDS011;49465;57.664;39.686;2023-03-23T08:34:35;4.97;;;3.15;;
63342;SDS011;49465;57.664;39.686;2023-03-23T08:37:04;3.40;;;2.85;;
63342;SDS011;49465;57.664;39.686;2023-03-23T08:39:31;3.33;;;2.97;;
63342;SDS011;49465;57.664;39.686;2023-03-23T08:42:03;4.40;;;3.38;;
63342;SDS011;49465;57.664;39.686;2023-03-23T08:44:29;3.60;;;3.05;;
63342;SDS011;49465;57.664;39.686;2023-03-23T08:46:58;4.10;;;3.35;;
63342;SDS011;49465;57.664;39.686;2023-03-23T08:49:28;5.78;;;4.15;;
63342;SDS011;49465;57.664;39.686;2023-03-23T08:51:58;5.20;;;3.63;;
63342;SDS011;49465;57.664;39.686;2023-03-23T08:54:27;5.10;;;3.50;;
63342;SDS011;49465;57.664;39.686;2023-03-23T08:56:55;4.28;;;3.30;;
63342;SDS011;49465;57.664;39.686;2023-03-23T08:59:28;4.82;;;3.45;;
63342;SDS011;49465;57.664;39.686;2023-03-23T09:01:55;5.00;;;3.95;;
63342;SDS011;49465;57.664;39.686;2023-03-23T09:04:21;6.18;;;3.80;;
63342;SDS011;49465;57.664;39.686;2023-03-23T09:06:50;5.50;;;3.67;;
63342;SDS011;49465;57.664;39.686;2023-03-23T09:09:19;3.97;;;3.30;;
63342;SDS011;49465;57.664;39.686;2023-03-23T09:11:52;4.80;;;3.45;;
63342;SDS011;49465;57.664;39.686;2023-03-23T09:14:19;6.20;;;3.70;;
63342;SDS011;49465;57.664;39.686;2023-03-23T09:16:45;5.07;;;3.53;;
63342;SDS011;49465;57.664;39.686;2023-03-23T09:19:14;4.22;;;3.58;;
63342;SDS011;49465;57.664;39.686;2023-03-23T09:21:40;4.20;;;3.40;;
63342;SDS011;49465;57.664;39.686;2023-03-23T09:24:07;4.95;;;3.92;;
63342;SDS011;49465;57.664;39.686;2023-03-23T09:26:34;4.15;;;3.40;;
63342;SDS011;49465;57.664;39.686;2023-03-23T09:29:00;4.05;;;2.97;;
63342;SDS011;49465;57.664;39.686;2023-03-23T09:31:27;5.47;;;3.45;;
63342;SDS011;49465;57.664;39.686;2023-03-23T09:33:56;4.85;;;3.58;;
63342;SDS011;49465;57.664;39.686;2023-03-23T09:36:24;4.82;;;3.72;;
63342;SDS011;49465;57.664;39.686;2023-03-23T09:38:51;6.10;;;3.83;;
63342;SDS011;49465;57.664;39.686;2023-03-23T09:44:37;7.40;;;4.55;;
63342;SDS011;49465;57.664;39.686;2023-03-23T09:47:17;8.70;;;5.30;;
63342;SDS011;49465;57.664;39.686;2023-03-23T09:49:54;8.65;;;5.53;;
63342;SDS011;49465;57.664;39.686;2023-03-23T09:55:27;12.45;;;7.80;;
63342;SDS011;49465;57.664;39.686;2023-03-23T10:01:19;9.82;;;6.47;;
63342;SDS011;49465;57.664;39.686;2023-03-23T10:03:52;7.68;;;5.65;;
63342;SDS011;49465;57.664;39.686;2023-03-23T10:06:37;6.53;;;4.32;;
63342;SDS011;49465;57.664;39.686;2023-03-23T10:09:04;7.40;;;4.45;;
63342;SDS011;49465;57.664;39.686;2023-03-23T10:16:58;6.10;;;4.78;;
63342;SDS011;49465;57.664;39.686;2023-03-23T10:22:21;5.63;;;4.28;;
63342;SDS011;49465;57.664;39.686;2023-03-23T10:33:01;5.38;;;4.40;;
63342;SDS011;49465;57.664;39.686;2023-03-23T10:35:50;5.88;;;4.60;;
63342;SDS011;49465;57.664;39.686;2023-03-23T10:41:18;6.20;;;4.30;;
63342;SDS011;49465;57.664;39.686;2023-03-23T10:43:46;5.07;;;4.40;;
63342;SDS011;49465;57.664;39.686;2023-03-23T10:49:06;6.35;;;4.43;;
63342;SDS011;49465;57.664;39.686;2023-03-23T10:51:40;6.30;;;4.78;;
63342;SDS011;49465;57.664;39.686;2023-03-23T10:54:12;10.77;;;7.43;;
63342;SDS011;49465;57.664;39.686;2023-03-23T10:56:50;9.88;;;7.40;;
63342;SDS011;49465;57.664;39.686;2023-03-23T10:59:27;8.85;;;6.38;;
63342;SDS011;49465;57.664;39.686;2023-03-23T11:01:55;8.10;;;6.30;;
63342;SDS011;49465;57.664;39.686;2023-03-23T11:04:28;6.88;;;5.60;;
63342;SDS011;49465;57.664;39.686;2023-03-23T11:06:58;5.07;;;4.40;;
63342;SDS011;49465;57.664;39.686;2023-03-23T11:09:35;4.63;;;4.15;;
63342;SDS011;49465;57.664;39.686;2023-03-23T11:12:19;5.15;;;4.00;;
63342;SDS011;49465;57.664;39.686;2023-03-23T11:14:46;5.47;;;4.03;;
63342;SDS011;49465;57.664;39.686;2023-03-23T11:17:23;4.65;;;4.15;;
63342;SDS011;49465;57.664;39.686;2023-03-23T11:19:54;4.35;;;3.70;;
63342;SDS011;49465;57.664;39.686;2023-03-23T11:22:28;4.68;;;3.45;;
63342;SDS011;49465;57.664;39.686;2023-03-23T11:25:01;4.15;;;3.42;;
63342;SDS011;49465;57.664;39.686;2023-03-23T11:27:29;3.70;;;3.30;;
63342;SDS011;49465;57.664;39.686;2023-03-23T11:30:21;7.03;;;5.50;;
63342;SDS011;49465;57.664;39.686;2023-03-23T11:33:00;4.70;;;3.90;;
63342;SDS011;49465;57.664;39.686;2023-03-23T11:35:31;5.45;;;3.47;;
63342;SDS011;49465;57.664;39.686;2023-03-23T11:38:11;4.95;;;3.30;;
63342;SDS011;49465;57.664;39.686;2023-03-23T11:40:52;4.05;;;3.20;;
63342;SDS011;49465;57.664;39.686;2023-03-23T11:43:24;4.72;;;3.50;;
63342;SDS011;49465;57.664;39.686;2023-03-23T11:54:32;5.33;;;3.67;;
63342;SDS011;49465;57.664;39.686;2023-03-23T11:57:09;4.97;;;3.25;;
63342;SDS011;49465;57.664;39.686;2023-03-23T11:59:37;3.80;;;3.40;;
63342;SDS011;49465;57.664;39.686;2023-03-23T12:02:19;4.05;;;3.20;;
63342;SDS011;49465;57.664;39.686;2023-03-23T12:04:57;3.47;;;3.17;;
63342;SDS011;49465;57.664;39.686;2023-03-23T12:21:37;3.75;;;3.35;;
63342;SDS011;49465;57.664;39.686;2023-03-23T12:30:35;4.43;;;3.50;;
63342;SDS011;49465;57.664;39.686;2023-03-23T12:33:26;4.53;;;3.33;;
63342;SDS011;49465;57.664;39.686;2023-03-23T12:36:10;4.13;;;3.50;;
63342;SDS011;49465;57.664;39.686;2023-03-23T12:44:34;5.93;;;3.33;;
63342;SDS011;49465;57.664;39.686;2023-03-23T12:52:36;3.40;;;3.03;;
63342;SDS011;49465;57.664;39.686;2023-03-23T12:57:48;3.65;;;3.20;;
63342;SDS011;49465;57.664;39.686;2023-03-23T13:11:48;3.20;;;2.88;;
63342;SDS011;49465;57.664;39.686;2023-03-23T13:25:35;4.28;;;3.20;;
63342;SDS011;49465;57.664;39.686;2023-03-23T13:28:24;3.42;;;3.03;;
63342;SDS011;49465;57.664;39.686;2023-03-23T13:31:00;4.82;;;2.95;;
63342;SDS011;49465;57.664;39.686;2023-03-23T13:33:32;4.18;;;3.13;;
63342;SDS011;49465;57.664;39.686;2023-03-23T13:36:04;4.40;;;3.05;;
63342;SDS011;49465;57.664;39.686;2023-03-23T13:38:43;5.07;;;3.35;;
63342;SDS011;49465;57.664;39.686;2023-03-23T13:41:13;3.83;;;3.33;;
63342;SDS011;49465;57.664;39.686;2023-03-23T13:43:42;4.15;;;3.10;;
63342;SDS011;49465;57.664;39.686;2023-03-23T13:48:51;5.28;;;3.75;;
63342;SDS011;49465;57.664;39.686;2023-03-23T13:54:14;5.22;;;3.58;;
63342;SDS011;49465;57.664;39.686;2023-03-23T13:56:56;4.25;;;3.60;;
63342;SDS011;49465;57.664;39.686;2023-03-23T14:05:08;4.80;;;4.05;;
63342;SDS011;49465;57.664;39.686;2023-03-23T14:10:36;4.53;;;3.55;;
63342;SDS011;49465;57.664;39.686;2023-03-23T14:13:25;5.18;;;3.65;;
63342;SDS011;49465;57.664;39.686;2023-03-23T14:16:01;5.55;;;3.75;;
63342;SDS011;49465;57.664;39.686;2023-03-23T14:18:55;4.75;;;3.70;;
63342;SDS011;49465;57.664;39.686;2023-03-23T14:24:03;4.25;;;3.85;;
63342;SDS011;49465;57.664;39.686;2023-03-23T14:26:37;4.43;;;3.67;;
63342;SDS011;49465;57.664;39.686;2023-03-23T14:29:13;4.28;;;3.55;;
63342;SDS011;49465;57.664;39.686;2023-03-23T14:31:43;4.47;;;3.75;;
63342;SDS011;49465;57.664;39.686;2023-03-23T14:34:16;8.38;;;7.07;;
63342;SDS011;49465;57.664;39.686;2023-03-23T14:36:50;5.82;;;4.47;;
63342;SDS011;49465;57.664;39.686;2023-03-23T14:39:35;5.28;;;3.90;;
63342;SDS011;49465;57.664;39.686;2023-03-23T14:42:15;7.88;;;3.92;;
63342;SDS011;49465;57.664;39.686;2023-03-23T14:45:00;4.10;;;3.58;;
63342;SDS011;49465;57.664;39.686;2023-03-23T14:50:05;6.03;;;4.63;;
63342;SDS011;49465;57.664;39.686;2023-03-23T14:52:47;9.07;;;5.75;;
63342;SDS011;49465;57.664;39.686;2023-03-23T14:55:22;4.82;;;3.95;;
63342;SDS011;49465;57.664;39.686;2023-03-23T14:57:51;5.25;;;4.35;;
63342;SDS011;49465;57.664;39.686;2023-03-23T15:00:27;4.82;;;4.10;;
63342;SDS011;49465;57.664;39.686;2023-03-23T15:02:59;5.30;;;4.35;;
63342;SDS011;49465;57.664;39.686;2023-03-23T15:05:36;6.32;;;4.68;;
63342;SDS011;49465;57.664;39.686;2023-03-23T15:08:18;6.22;;;4.88;;
63342;SDS011;49465;57.664;39.686;2023-03-23T15:11:06;7.45;;;5.63;;
63342;SDS011;49465;57.664;39.686;2023-03-23T15:13:37;5.85;;;5.13;;
63342;SDS011;49465;57.664;39.686;2023-03-23T15:16:34;6.43;;;4.15;;
63342;SDS011;49465;57.664;39.686;2023-03-23T15:19:11;5.38;;;4.32;;
63342;SDS011;49465;57.664;39.686;2023-03-23T15:24:33;7.00;;;6.28;;
63342;SDS011;49465;57.664;39.686;2023-03-23T15:29:45;5.18;;;4.65;;
63342;SDS011;49465;57.664;39.686;2023-03-23T15:32:31;5.05;;;4.35;;
63342;SDS011;49465;57.664;39.686;2023-03-23T15:35:11;6.43;;;4.90;;
63342;SDS011;49465;57.664;39.686;2023-03-23T15:37:49;8.18;;;5.80;;
63342;SDS011;49465;57.664;39.686;2023-03-23T15:40:23;6.80;;;4.55;;
63342;SDS011;49465;57.664;39.686;2023-03-23T15:45:39;6.22;;;4.97;;
63342;SDS011;49465;57.664;39.686;2023-03-23T15:48:32;6.05;;;4.85;;
63342;SDS011;49465;57.664;39.686;2023-03-23T15:51:11;6.45;;;5.05;;
63342;SDS011;49465;57.664;39.686;2023-03-23T15:53:38;5.47;;;4.47;;
63342;SDS011;49465;57.664;39.686;2023-03-23T15:56:10;5.38;;;4.53;;
63342;SDS011;49465;57.664;39.686;2023-03-23T15:58:41;6.03;;;4.40;;
63342;SDS011;49465;57.664;39.686;2023-03-23T16:01:12;5.97;;;4.80;;
63342;SDS011;49465;57.664;39.686;2023-03-23T16:03:55;6.90;;;4.82;;
63342;SDS011;49465;57.664;39.686;2023-03-23T16:06:37;7.43;;;5.35;;
63342;SDS011;49465;57.664;39.686;2023-03-23T16:09:12;8.75;;;6.30;;
63342;SDS011;49465;57.664;39.686;2023-03-23T16:11:42;6.65;;;5.28;;
63342;SDS011;49465;57.664;39.686;2023-03-23T16:14:15;5.72;;;4.93;;
63342;SDS011;49465;57.664;39.686;2023-03-23T16:16:47;6.90;;;5.07;;
63342;SDS011;49465;57.664;39.686;2023-03-23T16:19:17;7.47;;;4.82;;
63342;SDS011;49465;57.664;39.686;2023-03-23T16:21:48;6.90;;;5.22;;
63342;SDS011;49465;57.664;39.686;2023-03-23T16:24:17;5.55;;;4.85;;
63342;SDS011;49465;57.664;39.686;2023-03-23T16:26:43;7.55;;;5.35;;
63342;SDS011;49465;57.664;39.686;2023-03-23T16:29:11;5.55;;;4.72;;
63342;SDS011;49465;57.664;39.686;2023-03-23T16:31:39;7.15;;;5.22;;
63342;SDS011;49465;57.664;39.686;2023-03-23T16:34:11;5.88;;;5.13;;
63342;SDS011;49465;57.664;39.686;2023-03-23T16:36:40;6.20;;;5.18;;
63342;SDS011;49465;57.664;39.686;2023-03-23T16:39:11;6.72;;;5.20;;
63342;SDS011;49465;57.664;39.686;2023-03-23T16:41:39;7.07;;;5.13;;
63342;SDS011;49465;57.664;39.686;2023-03-23T16:44:08;6.20;;;5.10;;
63342;SDS011;49465;57.664;39.686;2023-03-23T16:46:37;6.55;;;4.88;;
63342;SDS011;49465;57.664;39.686;2023-03-23T16:49:07;6.38;;;5.22;;
63342;SDS011;49465;57.664;39.686;2023-03-23T16:51:38;6.47;;;5.20;;
63342;SDS011;49465;57.664;39.686;2023-03-23T16:54:08;6.80;;;5.18;;
63342;SDS011;49465;57.664;39.686;2023-03-23T16:56:35;6.30;;;5.32;;
63342;SDS011;49465;57.664;39.686;2023-03-23T16:59:04;6.50;;;5.20;;
63342;SDS011;49465;57.664;39.686;2023-03-23T17:01:36;7.47;;;5.07;;
63342;SDS011;49465;57.664;39.686;2023-03-23T17:04:10;7.10;;;5.00;;
63342;SDS011;49465;57.664;39.686;2023-03-23T17:06:36;7.22;;;5.22;;
63342;SDS011;49465;57.664;39.686;2023-03-23T17:09:07;6.85;;;5.38;;
63342;SDS011;49465;57.664;39.686;2023-03-23T17:11:39;5.70;;;4.55;;
63342;SDS011;49465;57.664;39.686;2023-03-23T17:14:08;7.10;;;4.88;;
63342;SDS011;49465;57.664;39.686;2023-03-23T17:16:37;6.55;;;4.90;;
63342;SDS011;49465;57.664;39.686;2023-03-23T17:19:13;7.40;;;5.32;;
63342;SDS011;49465;57.664;39.686;2023-03-23T17:21:40;7.53;;;5.10;;
63342;SDS011;49465;57.664;39.686;2023-03-23T17:24:18;6.45;;;5.28;;
63342;SDS011;49465;57.664;39.686;2023-03-23T17:26:45;7.55;;;5.35;;
63342;SDS011;49465;57.664;39.686;2023-03-23T17:29:14;6.65;;;5.43;;
63342;SDS011;49465;57.664;39.686;2023-03-23T17:31:43;7.15;;;5.63;;